Time;durP1;ratioP1;P1;durP2;ratioP2;P2;SDS_P1;SDS_P2;PMS_P1;PMS_P2;Temp;Humidity;BMP_temperature;BMP_pressure;BME280_temperature;BME280_humidity;BME280_pressure;Samples;Min_cycle;Max_cycle;Signal;HPM_P1;HPM_P2
2023/07/25 00:02:12;;;;;;;47.75;45.33;;;;;;;;;;5083932;28;20058;-72
2023/07/25 00:04:37;;;;;;;60.55;57.53;;;;;;;;;;5076929;28;20040;-72
2023/07/25 00:07:04;;;;;;;32.88;31.17;;;;;;;;;;5080145;28;20123;-68
2023/07/25 00:09:30;;;;;;;65.28;62.03;;;;;;;;;;5075563;28;20488;-74
2023/07/25 00:11:55;;;;;;;30.42;28.85;;;;;;;;;;5078068;28;20025;-71
2023/07/25 00:14:21;;;;;;;39.00;36.97;;;;;;;;;;5079432;28;20032;-69
2023/07/25 00:16:46;;;;;;;31.10;29.50;;;;;;;;;;5078096;28;20441;-71
2023/07/25 00:19:11;;;;;;;30.95;29.35;;;;;;;;;;5078049;28;20047;-71
2023/07/25 00:21:37;;;;;;;31.05;29.45;;;;;;;;;;5076433;28;20853;-68
2023/07/25 00:24:02;;;;;;;57.92;55.03;;;;;;;;;;5079482;28;20115;-71
2023/07/25 00:26:29;;;;;;;77.18;73.30;;;;;;;;;;5077256;28;20093;-68
2023/07/25 00:28:54;;;;;;;84.15;80.00;;;;;;;;;;5078192;28;20039;-69
2023/07/25 00:31:19;;;;;;;71.32;67.78;;;;;;;;;;5081142;28;20063;-71
2023/07/25 00:33:45;;;;;;;76.30;72.55;;;;;;;;;;5077866;28;20032;-71
2023/07/25 00:36:10;;;;;;;85.63;81.43;;;;;;;;;;5077119;28;20050;-72
2023/07/25 00:38:36;;;;;;;73.10;69.45;;;;;;;;;;5079698;28;20721;-68
2023/07/25 00:41:01;;;;;;;74.40;70.68;;;;;;;;;;5076874;28;20056;-68
2023/07/25 00:43:26;;;;;;;56.05;53.20;;;;;;;;;;5079185;28;20028;-72
2023/07/25 00:45:52;;;;;;;69.75;66.30;;;;;;;;;;5076504;28;20071;-72
2023/07/25 00:48:18;;;;;;;60.72;57.70;;;;;;;;;;5076619;28;20043;-71
2023/07/25 00:50:44;;;;;;;71.97;68.43;;;;;;;;;;5078683;28;20024;-72
2023/07/25 00:53:12;;;;;;;82.65;78.57;;;;;;;;;;5077508;28;20028;-69
2023/07/25 00:55:38;;;;;;;56.97;54.10;;;;;;;;;;5075035;28;20040;-72
2023/07/25 00:58:03;;;;;;;86.20;81.90;;;;;;;;;;5082109;28;20028;-73
2023/07/25 01:00:28;;;;;;;79.20;75.25;;;;;;;;;;5079752;28;20107;-73
2023/07/25 01:02:54;;;;;;;92.00;87.47;;;;;;;;;;5078775;28;20043;-73
2023/07/25 01:05:20;;;;;;;97.30;92.53;;;;;;;;;;5077082;28;20044;-72
2023/07/25 01:07:45;;;;;;;72.60;68.95;;;;;;;;;;5084275;28;20028;-72
2023/07/25 01:10:14;;;;;;;86.95;82.65;;;;;;;;;;5078767;28;20060;-72
2023/07/25 01:12:39;;;;;;;81.57;77.45;;;;;;;;;;5078903;28;20039;-72
2023/07/25 01:15:05;;;;;;;101.22;96.25;;;;;;;;;;5074297;28;20025;-71
2023/07/25 01:17:30;;;;;;;106.68;101.45;;;;;;;;;;5077622;28;20582;-68
2023/07/25 01:19:56;;;;;;;112.45;106.93;;;;;;;;;;5077156;28;20032;-69
2023/07/25 01:22:25;;;;;;;111.75;106.25;;;;;;;;;;5061747;28;20067;-72
2023/07/25 01:24:54;;;;;;;93.93;89.05;;;;;;;;;;5074934;28;20028;-69
2023/07/25 01:27:19;;;;;;;88.53;84.18;;;;;;;;;;5077060;28;20075;-71
2023/07/25 01:29:45;;;;;;;111.10;105.68;;;;;;;;;;5083795;28;20027;-68
2023/07/25 01:32:10;;;;;;;97.47;92.68;;;;;;;;;;5077260;28;20035;-68
2023/07/25 01:34:36;;;;;;;110.10;104.70;;;;;;;;;;5075506;28;20116;-69
2023/07/25 01:37:03;;;;;;;105.80;100.57;;;;;;;;;;5077356;28;20046;-71
2023/07/25 01:39:28;;;;;;;104.05;98.95;;;;;;;;;;5075751;28;20031;-69
2023/07/25 01:41:53;;;;;;;103.03;97.95;;;;;;;;;;5077028;28;20497;-72
2023/07/25 01:44:18;;;;;;;114.57;108.95;;;;;;;;;;5078188;28;20033;-72
2023/07/25 01:46:44;;;;;;;107.53;102.22;;;;;;;;;;5075914;28;20358;-72
2023/07/25 01:49:10;;;;;;;110.43;105.00;;;;;;;;;;5076787;28;20040;-68
2023/07/25 01:51:36;;;;;;;104.82;99.63;;;;;;;;;;5076640;28;20044;-73
2023/07/25 01:54:02;;;;;;;100.38;95.38;;;;;;;;;;5077099;28;20032;-72
2023/07/25 01:56:27;;;;;;;102.60;97.53;;;;;;;;;;5077179;28;20072;-71
2023/07/25 01:58:53;;;;;;;144.98;137.85;;;;;;;;;;5077191;28;20932;-71
2023/07/25 02:01:19;;;;;;;122.50;116.45;;;;;;;;;;5075580;28;20545;-67
2023/07/25 02:03:44;;;;;;;92.20;87.65;;;;;;;;;;5075055;28;20928;-71
2023/07/25 02:06:10;;;;;;;92.03;87.47;;;;;;;;;;5077268;28;20038;-71
2023/07/25 02:08:35;;;;;;;82.90;78.75;;;;;;;;;;5078035;28;20383;-71
2023/07/25 02:11:01;;;;;;;77.03;73.20;;;;;;;;;;5074518;28;20032;-70
2023/07/25 02:13:26;;;;;;;75.03;71.30;;;;;;;;;;5073993;28;20040;-67
2023/07/25 02:15:51;;;;;;;84.63;80.43;;;;;;;;;;5077856;28;20028;-68
2023/07/25 02:18:17;;;;;;;93.35;88.72;;;;;;;;;;5074879;28;20093;-68
2023/07/25 02:20:42;;;;;;;126.07;119.63;;;;;;;;;;5075183;28;20043;-68
2023/07/25 02:23:07;;;;;;;155.55;147.88;;;;;;;;;;5077887;28;20032;-68
2023/07/25 02:25:33;;;;;;;172.40;163.93;;;;;;;;;;5078096;28;20119;-69
2023/07/25 02:27:58;;;;;;;187.95;178.68;;;;;;;;;;5075490;28;20031;-68
2023/07/25 02:30:23;;;;;;;186.88;177.70;;;;;;;;;;5076445;28;20032;-67
2023/07/25 02:32:49;;;;;;;194.82;185.20;;;;;;;;;;5075403;28;20730;-69
2023/07/25 02:35:14;;;;;;;172.63;164.05;;;;;;;;;;5076733;28;20514;-69
2023/07/25 02:37:42;;;;;;;179.20;170.35;;;;;;;;;;5072917;28;20462;-70
2023/07/25 02:40:08;;;;;;;151.18;143.60;;;;;;;;;;5076123;28;20107;-70
2023/07/25 02:42:34;;;;;;;155.60;147.85;;;;;;;;;;5076424;28;20103;-70
2023/07/25 02:44:59;;;;;;;144.35;137.10;;;;;;;;;;5074047;28;20035;-71
2023/07/25 02:47:25;;;;;;;147.25;139.82;;;;;;;;;;5073584;28;20040;-71
2023/07/25 02:49:50;;;;;;;151.00;143.45;;;;;;;;;;5075429;28;20032;-71
2023/07/25 02:52:17;;;;;;;116.90;110.95;;;;;;;;;;5077254;28;20105;-71
2023/07/25 02:54:42;;;;;;;118.55;112.57;;;;;;;;;;5074413;28;20047;-71
2023/07/25 02:57:08;;;;;;;116.35;110.55;;;;;;;;;;5074149;28;20569;-70
2023/07/25 02:59:33;;;;;;;123.38;117.15;;;;;;;;;;5078846;28;20353;-72
2023/07/25 03:01:58;;;;;;;99.38;94.43;;;;;;;;;;5075352;28;20036;-73
2023/07/25 03:04:24;;;;;;;125.70;119.40;;;;;;;;;;5070112;28;20028;-72
2023/07/25 03:06:49;;;;;;;122.53;116.40;;;;;;;;;;5076257;28;20373;-72
2023/07/25 03:09:14;;;;;;;107.30;101.93;;;;;;;;;;5082730;28;20036;-73
2023/07/25 03:11:40;;;;;;;106.97;101.22;;;;;;;;;;5076814;28;20040;-74
2023/07/25 03:14:05;;;;;;;114.60;108.88;;;;;;;;;;5073375;28;20039;-74
2023/07/25 03:16:31;;;;;;;119.55;113.47;;;;;;;;;;5071832;28;20121;-76
2023/07/25 03:18:56;;;;;;;114.30;108.60;;;;;;;;;;5075941;28;20474;-76
2023/07/25 03:21:21;;;;;;;110.45;104.90;;;;;;;;;;5076741;28;20485;-75
2023/07/25 03:23:47;;;;;;;112.97;107.32;;;;;;;;;;5078381;28;20036;-75
2023/07/25 03:26:12;;;;;;;107.18;101.85;;;;;;;;;;5076611;28;20036;-76
2023/07/25 03:28:37;;;;;;;107.38;101.95;;;;;;;;;;5075860;28;20409;-76
2023/07/25 03:31:04;;;;;;;107.97;102.63;;;;;;;;;;5077167;28;20115;-78
2023/07/25 03:33:29;;;;;;;105.47;100.22;;;;;;;;;;5074909;28;20297;-76
2023/07/25 03:35:55;;;;;;;103.30;98.15;;;;;;;;;;5073606;28;20671;-77
2023/07/25 03:38:20;;;;;;;103.65;97.82;;;;;;;;;;5075584;28;20513;-76
2023/07/25 03:40:46;;;;;;;113.45;107.78;;;;;;;;;;5075320;28;20029;-77
2023/07/25 03:43:12;;;;;;;82.80;78.65;;;;;;;;;;5073455;28;20747;-78
2023/07/25 03:45:37;;;;;;;86.40;82.00;;;;;;;;;;5081075;28;20032;-78
2023/07/25 03:48:03;;;;;;;90.38;85.82;;;;;;;;;;5073962;28;20039;-77
2023/07/25 03:50:29;;;;;;;97.90;92.90;;;;;;;;;;5074210;28;20042;-76
2023/07/25 03:52:56;;;;;;;103.18;97.90;;;;;;;;;;5059352;28;20032;-74
2023/07/25 03:55:22;;;;;;;120.55;114.22;;;;;;;;;;5073456;28;20048;-74
2023/07/25 03:57:47;;;;;;;153.02;144.88;;;;;;;;;;5074570;28;20033;-75
2023/07/25 04:00:13;;;;;;;185.55;175.77;;;;;;;;;;5078733;28;20228;-74
2023/07/25 04:02:38;;;;;;;223.52;211.98;;;;;;;;;;5079904;28;20477;-74
2023/07/25 04:05:04;;;;;;;237.43;225.20;;;;;;;;;;5077445;28;20029;-74
2023/07/25 04:07:29;;;;;;;234.55;222.57;;;;;;;;;;5080241;28;20032;-74
2023/07/25 04:09:54;;;;;;;252.30;239.45;;;;;;;;;;5078208;28;20028;-73
2023/07/25 04:12:20;;;;;;;273.35;259.33;;;;;;;;;;5078430;28;20040;-74
2023/07/25 04:14:45;;;;;;;287.98;273.25;;;;;;;;;;5077329;28;20352;-74
2023/07/25 04:17:11;;;;;;;321.27;304.45;;;;;;;;;;5078380;28;20028;-75
2023/07/25 04:19:36;;;;;;;352.60;333.75;;;;;;;;;;5077714;28;20962;-74
2023/07/25 04:22:01;;;;;;;310.23;293.90;;;;;;;;;;5077483;28;20044;-74
2023/07/25 04:24:27;;;;;;;333.13;315.55;;;;;;;;;;5076506;28;20071;-74
2023/07/25 04:26:52;;;;;;;346.48;327.90;;;;;;;;;;5078301;28;20119;-75
2023/07/25 04:29:17;;;;;;;365.00;345.42;;;;;;;;;;5075084;28;20029;-74
2023/07/25 04:31:44;;;;;;;331.40;313.60;;;;;;;;;;5077407;28;20104;-74
2023/07/25 04:34:10;;;;;;;351.35;332.33;;;;;;;;;;5081281;28;20031;-74
2023/07/25 04:36:35;;;;;;;317.88;300.92;;;;;;;;;;5074738;28;20039;-74
2023/07/25 04:39:00;;;;;;;290.25;274.88;;;;;;;;;;5077717;28;20673;-74
2023/07/25 04:41:26;;;;;;;273.33;259.20;;;;;;;;;;5079372;28;20060;-74
2023/07/25 04:43:51;;;;;;;280.00;265.45;;;;;;;;;;5079530;28;20468;-74
2023/07/25 04:46:17;;;;;;;288.52;273.70;;;;;;;;;;5075963;28;20505;-74
2023/07/25 04:48:42;;;;;;;196.02;186.05;;;;;;;;;;5076434;28;20105;-75
2023/07/25 04:51:07;;;;;;;165.23;155.32;;;;;;;;;;5077293;28;20020;-75
2023/07/25 04:53:34;;;;;;;145.15;137.80;;;;;;;;;;5076050;28;20032;-75
2023/07/25 04:55:59;;;;;;;145.73;138.38;;;;;;;;;;5080223;28;20057;-75
2023/07/25 04:58:24;;;;;;;127.95;121.28;;;;;;;;;;5078892;28;20036;-74
2023/07/25 05:00:50;;;;;;;98.88;93.85;;;;;;;;;;5077131;28;20587;-73
2023/07/25 05:03:15;;;;;;;95.05;89.75;;;;;;;;;;5066851;28;20646;-73
2023/07/25 05:05:41;;;;;;;86.80;82.30;;;;;;;;;;5073408;28;20059;-73
2023/07/25 05:08:06;;;;;;;73.82;69.95;;;;;;;;;;5077817;28;20459;-74
2023/07/25 05:10:32;;;;;;;79.80;75.68;;;;;;;;;;5074372;28;20446;-72
2023/07/25 05:12:57;;;;;;;74.38;70.28;;;;;;;;;;5077628;28;20059;-73
2023/07/25 05:15:23;;;;;;;71.28;67.15;;;;;;;;;;5075102;28;24123;-74
2023/07/25 05:17:48;;;;;;;61.97;58.78;;;;;;;;;;5079770;28;20060;-74
2023/07/25 05:20:14;;;;;;;53.65;50.88;;;;;;;;;;5076110;28;20454;-75
2023/07/25 05:22:39;;;;;;;60.90;57.70;;;;;;;;;;5076992;28;20139;-74
2023/07/25 05:25:05;;;;;;;48.67;46.17;;;;;;;;;;5078220;28;20037;-74
2023/07/25 05:27:30;;;;;;;46.05;43.42;;;;;;;;;;5079344;28;20028;-75
2023/07/25 05:29:56;;;;;;;44.65;42.28;;;;;;;;;;5075481;28;20047;-75
2023/07/25 05:32:22;;;;;;;45.47;43.00;;;;;;;;;;5074394;28;20024;-75
2023/07/25 05:34:47;;;;;;;36.72;34.75;;;;;;;;;;5075458;28;20070;-73
2023/07/25 05:37:13;;;;;;;57.45;54.42;;;;;;;;;;5064296;28;20081;-73
2023/07/25 05:39:38;;;;;;;43.55;40.92;;;;;;;;;;5077318;28;20039;-74
2023/07/25 05:42:03;;;;;;;35.45;33.50;;;;;;;;;;5076240;28;20035;-74
2023/07/25 05:44:29;;;;;;;31.17;29.50;;;;;;;;;;5076281;28;20043;-73
2023/07/25 05:46:54;;;;;;;35.83;33.92;;;;;;;;;;5076111;28;20167;-73
2023/07/25 05:49:20;;;;;;;42.78;40.50;;;;;;;;;;5078901;28;20353;-73
2023/07/25 05:51:45;;;;;;;28.15;26.65;;;;;;;;;;5078348;28;20021;-77
2023/07/25 05:54:10;;;;;;;37.38;35.42;;;;;;;;;;5078807;28;20032;-75
2023/07/25 05:56:36;;;;;;;32.30;30.55;;;;;;;;;;5063735;28;20036;-80
2023/07/25 05:59:01;;;;;;;29.70;27.65;;;;;;;;;;5074783;28;20036;-77
2023/07/25 06:01:26;;;;;;;31.20;29.50;;;;;;;;;;5077377;28;20029;-79
2023/07/25 06:03:52;;;;;;;30.38;28.67;;;;;;;;;;5075106;28;20034;-78
2023/07/25 06:06:17;;;;;;;31.60;29.80;;;;;;;;;;5075479;28;20112;-78
2023/07/25 06:08:42;;;;;;;39.05;36.78;;;;;;;;;;5078542;28;20139;-75
2023/07/25 06:11:08;;;;;;;27.45;26.00;;;;;;;;;;5075962;28;20481;-77
2023/07/25 06:13:33;;;;;;;31.25;29.35;;;;;;;;;;5075357;28;20036;-77
2023/07/25 06:15:59;;;;;;;33.60;31.77;;;;;;;;;;5068185;28;20031;-78
2023/07/25 06:18:24;;;;;;;23.27;22.02;;;;;;;;;;5077582;28;20450;-77
2023/07/25 06:20:49;;;;;;;24.05;22.67;;;;;;;;;;5077664;28;20020;-76
2023/07/25 06:23:15;;;;;;;26.30;24.88;;;;;;;;;;5079293;28;20096;-75
2023/07/25 06:25:40;;;;;;;25.15;23.65;;;;;;;;;;5078510;28;20036;-78
2023/07/25 06:28:06;;;;;;;26.30;24.80;;;;;;;;;;5078247;28;20028;-75
2023/07/25 06:30:32;;;;;;;23.77;22.40;;;;;;;;;;5073774;28;20032;-77
2023/07/25 06:32:57;;;;;;;25.58;23.98;;;;;;;;;;5075841;28;20067;-76
2023/07/25 06:35:22;;;;;;;24.10;22.75;;;;;;;;;;5074506;28;20560;-74
2023/07/25 06:37:48;;;;;;;23.42;22.17;;;;;;;;;;5075397;28;20051;-76
2023/07/25 06:40:14;;;;;;;25.70;24.27;;;;;;;;;;5075629;28;20046;-77
2023/07/25 06:42:40;;;;;;;26.52;25.05;;;;;;;;;;5079573;28;20545;-76
2023/07/25 06:45:07;;;;;;;30.83;29.17;;;;;;;;;;5075028;28;20041;-75
2023/07/25 06:47:33;;;;;;;32.33;30.58;;;;;;;;;;5075356;28;20086;-74
2023/07/25 06:49:59;;;;;;;27.30;25.83;;;;;;;;;;5078349;28;20909;-76
2023/07/25 06:52:24;;;;;;;27.50;26.05;;;;;;;;;;5073993;28;20458;-75
2023/07/25 06:54:50;;;;;;;29.10;27.33;;;;;;;;;;5077178;28;20066;-76
2023/07/25 06:57:15;;;;;;;28.95;27.33;;;;;;;;;;5075413;28;20054;-74
2023/07/25 06:59:41;;;;;;;28.17;26.67;;;;;;;;;;5078832;28;20473;-72
2023/07/25 07:02:06;;;;;;;30.02;28.23;;;;;;;;;;5075082;28;20028;-79
2023/07/25 07:04:31;;;;;;;30.70;29.02;;;;;;;;;;5076038;28;20062;-76
2023/07/25 07:06:57;;;;;;;31.25;29.52;;;;;;;;;;5075070;28;20032;-72
2023/07/25 07:09:22;;;;;;;32.45;30.73;;;;;;;;;;5074792;28;20408;-72
2023/07/25 07:11:47;;;;;;;34.35;32.53;;;;;;;;;;5076453;28;20446;-71
2023/07/25 07:14:13;;;;;;;32.25;30.52;;;;;;;;;;5078652;28;20040;-72
2023/07/25 07:16:38;;;;;;;29.58;28.00;;;;;;;;;;5074860;28;20055;-72
2023/07/25 07:19:03;;;;;;;32.13;30.40;;;;;;;;;;5077278;28;20336;-72
2023/07/25 07:21:29;;;;;;;32.95;31.05;;;;;;;;;;5074807;28;20059;-72
2023/07/25 07:23:54;;;;;;;35.22;33.40;;;;;;;;;;5075543;28;20037;-71
2023/07/25 07:26:20;;;;;;;38.50;36.47;;;;;;;;;;5073308;28;20089;-72
2023/07/25 07:28:45;;;;;;;40.38;38.10;;;;;;;;;;5075827;28;20483;-71
2023/07/25 07:31:12;;;;;;;40.92;38.78;;;;;;;;;;5076441;28;20039;-71
2023/07/25 07:33:38;;;;;;;41.42;39.20;;;;;;;;;;5074092;28;20063;-69
2023/07/25 07:36:04;;;;;;;38.40;36.40;;;;;;;;;;5078206;28;20108;-68
2023/07/25 07:38:29;;;;;;;39.72;37.65;;;;;;;;;;5077872;28;20036;-69
2023/07/25 07:40:55;;;;;;;40.35;38.20;;;;;;;;;;5077293;28;20105;-70
2023/07/25 07:43:20;;;;;;;37.58;35.60;;;;;;;;;;5078286;28;20085;-69
2023/07/25 07:45:45;;;;;;;37.53;35.53;;;;;;;;;;5073654;28;20416;-69
2023/07/25 07:48:11;;;;;;;37.13;35.03;;;;;;;;;;5079666;28;20466;-68
2023/07/25 07:50:36;;;;;;;34.22;32.38;;;;;;;;;;5079702;28;20037;-68
2023/07/25 07:53:03;;;;;;;32.83;31.05;;;;;;;;;;5079308;28;20040;-69
2023/07/25 07:55:29;;;;;;;36.17;34.17;;;;;;;;;;5086440;28;20090;-68
2023/07/25 07:57:55;;;;;;;43.05;40.75;;;;;;;;;;5079819;28;20060;-68
2023/07/25 08:00:21;;;;;;;40.20;37.90;;;;;;;;;;5078344;28;20388;-69
2023/07/25 08:02:47;;;;;;;41.58;39.28;;;;;;;;;;5084134;28;20036;-71
2023/07/25 08:05:13;;;;;;;43.47;41.15;;;;;;;;;;5080109;28;20097;-71
2023/07/25 08:07:38;;;;;;;31.48;29.77;;;;;;;;;;5077574;28;20036;-71
2023/07/25 08:10:04;;;;;;;27.02;25.05;;;;;;;;;;5078872;28;20028;-70
2023/07/25 08:12:29;;;;;;;24.50;23.10;;;;;;;;;;5074167;28;20036;-70
2023/07/25 08:14:55;;;;;;;27.17;25.58;;;;;;;;;;5079544;28;20032;-71
2023/07/25 08:17:21;;;;;;;21.13;19.92;;;;;;;;;;5080020;28;20043;-70
2023/07/25 08:19:46;;;;;;;22.65;21.15;;;;;;;;;;5077146;28;20516;-70
2023/07/25 08:22:12;;;;;;;20.20;19.00;;;;;;;;;;5076399;28;20021;-70
2023/07/25 08:24:38;;;;;;;22.80;21.50;;;;;;;;;;5079025;28;20493;-71
2023/07/25 08:27:04;;;;;;;25.10;23.48;;;;;;;;;;5079001;28;20032;-70
2023/07/25 08:29:29;;;;;;;23.10;21.50;;;;;;;;;;5080445;28;20094;-68
2023/07/25 08:31:55;;;;;;;27.52;26.02;;;;;;;;;;5077869;28;20028;-69
2023/07/25 08:34:20;;;;;;;24.25;22.88;;;;;;;;;;5075993;28;20588;-70
2023/07/25 08:36:46;;;;;;;21.45;20.25;;;;;;;;;;5077926;28;20024;-72
2023/07/25 08:39:12;;;;;;;26.60;25.08;;;;;;;;;;5077535;28;20123;-70
2023/07/25 08:41:49;;;;;;;31.85;30.15;;;;;;;;;;5083517;28;20160;-70
2023/07/25 08:44:17;;;;;;;22.75;21.40;;;;;;;;;;5081183;28;20112;-71
2023/07/25 08:46:45;;;;;;;22.48;21.02;;;;;;;;;;5080106;28;20669;-70
2023/07/25 08:49:14;;;;;;;24.98;23.58;;;;;;;;;;5078861;28;20086;-72
2023/07/25 08:51:42;;;;;;;25.60;23.98;;;;;;;;;;5080640;28;20032;-72
2023/07/25 08:54:32;;;;;;;23.65;22.35;;;;;;;;;;5078129;28;20172;-71
2023/07/25 08:56:58;;;;;;;22.95;21.60;;;;;;;;;;5074134;28;20028;-72
2023/07/25 08:59:25;;;;;;;22.58;21.33;;;;;;;;;;5077754;28;20032;-72
2023/07/25 09:01:52;;;;;;;28.92;27.33;;;;;;;;;;5078791;28;20024;-71
2023/07/25 09:04:19;;;;;;;31.77;30.13;;;;;;;;;;5073023;28;20071;-69
2023/07/25 09:06:44;;;;;;;38.53;36.50;;;;;;;;;;5074964;28;20515;-70
2023/07/25 09:09:10;;;;;;;30.98;29.35;;;;;;;;;;5077889;28;20107;-71
2023/07/25 09:11:36;;;;;;;32.63;30.73;;;;;;;;;;5076650;28;20119;-73
2023/07/25 09:14:01;;;;;;;30.58;28.95;;;;;;;;;;5076202;28;20401;-71
2023/07/25 09:16:27;;;;;;;31.73;30.02;;;;;;;;;;5075519;28;20115;-70
2023/07/25 09:18:52;;;;;;;28.05;26.55;;;;;;;;;;5078161;28;20458;-72
2023/07/25 09:21:18;;;;;;;26.23;24.83;;;;;;;;;;5071857;28;20024;-68
2023/07/25 09:23:57;;;;;;;24.55;23.25;;;;;;;;;;5076797;28;20037;-68
2023/07/25 09:26:26;;;;;;;22.40;21.20;;;;;;;;;;5074459;28;20040;-67
2023/07/25 09:28:53;;;;;;;22.88;21.63;;;;;;;;;;5076123;28;20063;-71
2023/07/25 09:31:20;;;;;;;39.40;37.05;;;;;;;;;;5078309;28;20032;-67
2023/07/25 09:33:50;;;;;;;21.45;20.25;;;;;;;;;;5075497;28;20024;-68
2023/07/25 09:36:16;;;;;;;29.90;28.30;;;;;;;;;;5075584;28;20040;-67
2023/07/25 09:38:48;;;;;;;27.23;25.73;;;;;;;;;;5073854;28;20036;-71
2023/07/25 09:41:14;;;;;;;35.30;33.50;;;;;;;;;;5076708;28;20459;-71
2023/07/25 09:43:39;;;;;;;27.77;26.27;;;;;;;;;;5078754;28;20333;-68
2023/07/25 09:46:05;;;;;;;28.92;27.42;;;;;;;;;;5079099;28;20031;-68
2023/07/25 09:48:31;;;;;;;38.20;36.25;;;;;;;;;;5077167;28;20106;-70
2023/07/25 09:50:57;;;;;;;43.58;41.33;;;;;;;;;;5077507;28;20024;-68
2023/07/25 09:53:23;;;;;;;51.88;49.20;;;;;;;;;;5076573;28;20122;-70
2023/07/25 09:55:48;;;;;;;55.58;52.70;;;;;;;;;;5081850;28;20040;-71
2023/07/25 09:58:13;;;;;;;64.30;61.05;;;;;;;;;;5078028;28;20047;-72
2023/07/25 10:00:40;;;;;;;41.05;38.95;;;;;;;;;;5077035;28;20466;-67
2023/07/25 10:03:09;;;;;;;38.55;36.55;;;;;;;;;;5078264;28;20101;-68
2023/07/25 10:05:37;;;;;;;41.42;39.22;;;;;;;;;;5080681;28;20039;-67
2023/07/25 10:08:03;;;;;;;47.60;45.15;;;;;;;;;;5073532;28;20032;-68
2023/07/25 10:10:29;;;;;;;45.28;42.92;;;;;;;;;;5074602;28;20017;-70
2023/07/25 10:12:55;;;;;;;59.72;56.63;;;;;;;;;;5074765;28;20035;-70
2023/07/25 10:15:20;;;;;;;62.55;59.35;;;;;;;;;;5078917;28;20040;-70
2023/07/25 10:17:46;;;;;;;67.22;63.83;;;;;;;;;;5072754;28;20032;-66
2023/07/25 10:20:24;;;;;;;72.85;69.05;;;;;;;;;;5075290;28;20024;-67
2023/07/25 10:22:50;;;;;;;72.05;68.45;;;;;;;;;;5075240;28;20032;-67
2023/07/25 10:25:28;;;;;;;48.15;45.70;;;;;;;;;;5078428;28;20047;-67
2023/07/25 10:28:01;;;;;;;60.10;57.00;;;;;;;;;;5075078;28;20494;-67
2023/07/25 10:30:48;;;;;;;60.03;57.03;;;;;;;;;;5076593;28;20049;-67
2023/07/25 10:33:15;;;;;;;28.02;26.52;;;;;;;;;;5078194;28;20035;-67
2023/07/25 10:35:54;;;;;;;36.85;34.95;;;;;;;;;;5078324;28;20095;-67
2023/07/25 10:38:42;;;;;;;23.33;22.10;;;;;;;;;;5073630;28;20052;-68
2023/07/25 10:41:08;;;;;;;26.38;24.98;;;;;;;;;;5075502;28;20033;-67
2023/07/25 10:43:59;;;;;;;25.77;24.40;;;;;;;;;;5074059;28;20039;-66
2023/07/25 10:46:30;;;;;;;19.42;18.33;;;;;;;;;;5074914;28;20062;-67
2023/07/25 10:49:02;;;;;;;19.30;18.20;;;;;;;;;;5076899;28;20036;-66
2023/07/25 10:51:48;;;;;;;15.93;15.00;;;;;;;;;;5075112;28;20062;-71
2023/07/25 10:54:16;;;;;;;20.08;18.98;;;;;;;;;;5077633;28;20044;-72
2023/07/25 10:57:14;;;;;;;17.75;16.65;;;;;;;;;;5074865;28;20059;-72
2023/07/25 11:00:04;;;;;;;18.20;17.20;;;;;;;;;;5077138;28;20046;-71
2023/07/25 11:02:31;;;;;;;18.80;17.77;;;;;;;;;;5073353;28;20049;-66
2023/07/25 11:05:20;;;;;;;18.80;17.77;;;;;;;;;;5074303;28;20040;-66
2023/07/25 11:07:45;;;;;;;20.33;19.23;;;;;;;;;;5075730;28;20766;-68
2023/07/25 11:10:28;;;;;;;19.35;18.30;;;;;;;;;;5079275;28;20115;-74
2023/07/25 11:12:55;;;;;;;21.95;20.70;;;;;;;;;;5080127;28;20516;-66
2023/07/25 11:15:21;;;;;;;14.07;13.27;;;;;;;;;;5079320;28;20097;-68
2023/07/25 11:17:47;;;;;;;19.33;18.23;;;;;;;;;;5078321;28;21847;-66
2023/07/25 11:20:16;;;;;;;23.95;22.65;;;;;;;;;;5080632;28;20732;-70
2023/07/25 11:22:42;;;;;;;24.55;23.25;;;;;;;;;;5082271;28;20032;-74
2023/07/25 11:25:08;;;;;;;22.00;20.80;;;;;;;;;;5076615;28;20085;-74
2023/07/25 11:27:45;;;;;;;32.30;30.60;;;;;;;;;;5079639;28;20028;-72
2023/07/25 11:30:18;;;;;;;26.05;24.65;;;;;;;;;;5083533;28;20028;-73
2023/07/25 11:32:47;;;;;;;19.70;18.63;;;;;;;;;;5080214;28;20040;-69
2023/07/25 11:35:13;;;;;;;38.97;36.97;;;;;;;;;;5078605;28;20036;-73
2023/07/25 11:37:38;;;;;;;43.90;41.65;;;;;;;;;;5087920;28;20696;-66
2023/07/25 11:40:21;;;;;;;20.17;19.08;;;;;;;;;;5080719;28;20366;-66
2023/07/25 11:42:49;;;;;;;29.25;27.70;;;;;;;;;;5080204;28;20078;-65
2023/07/25 11:45:16;;;;;;;13.60;12.80;;;;;;;;;;5079480;28;20036;-64
2023/07/25 11:47:48;;;;;;;60.58;57.53;;;;;;;;;;5079200;28;20544;-72
2023/07/25 11:50:14;;;;;;;32.75;30.92;;;;;;;;;;5078153;28;20069;-74
2023/07/25 11:52:43;;;;;;;51.83;49.20;;;;;;;;;;5078569;28;20339;-72
2023/07/25 11:55:09;;;;;;;45.22;42.90;;;;;;;;;;5079749;28;20077;-72
2023/07/25 11:57:36;;;;;;;26.13;24.73;;;;;;;;;;5076369;28;20034;-73
2023/07/25 12:00:03;;;;;;;30.33;28.75;;;;;;;;;;5080736;28;20397;-74
2023/07/25 12:02:36;;;;;;;18.98;17.98;;;;;;;;;;5079221;28;20029;-72
2023/07/25 12:05:01;;;;;;;31.15;29.55;;;;;;;;;;5078613;28;20031;-74
2023/07/25 12:07:26;;;;;;;20.02;18.92;;;;;;;;;;5082984;28;20039;-74
2023/07/25 12:09:53;;;;;;;17.77;16.77;;;;;;;;;;5077332;28;20031;-72
2023/07/25 12:12:21;;;;;;;18.65;17.65;;;;;;;;;;5083170;28;20089;-72
2023/07/25 12:14:55;;;;;;;17.10;16.13;;;;;;;;;;5087901;28;20024;-70
2023/07/25 12:17:20;;;;;;;19.20;18.15;;;;;;;;;;5081858;28;20111;-72
2023/07/25 12:19:53;;;;;;;31.92;30.27;;;;;;;;;;5078408;28;20157;-72
2023/07/25 12:22:19;;;;;;;36.00;34.15;;;;;;;;;;5082610;28;20028;-73
2023/07/25 12:24:45;;;;;;;23.80;22.50;;;;;;;;;;5082355;28;20032;-72
2023/07/25 12:27:18;;;;;;;31.00;29.40;;;;;;;;;;5062921;28;20035;-72
2023/07/25 12:29:43;;;;;;;21.13;19.95;;;;;;;;;;5077392;28;20103;-72
2023/07/25 12:32:09;;;;;;;21.15;20.00;;;;;;;;;;5080397;28;20107;-73
2023/07/25 12:34:35;;;;;;;28.75;27.20;;;;;;;;;;5078721;28;20051;-73
2023/07/25 12:37:00;;;;;;;21.60;20.45;;;;;;;;;;5079485;28;20038;-73
2023/07/25 12:39:27;;;;;;;21.70;20.50;;;;;;;;;;5079838;28;20046;-74
2023/07/25 12:41:55;;;;;;;28.35;26.85;;;;;;;;;;5078872;28;20778;-74
2023/07/25 12:44:21;;;;;;;26.67;25.27;;;;;;;;;;5078785;28;20031;-72
2023/07/25 12:46:47;;;;;;;16.02;15.13;;;;;;;;;;5080554;28;20685;-73
2023/07/25 12:49:12;;;;;;;22.80;21.23;;;;;;;;;;5077944;28;20051;-72
2023/07/25 12:51:37;;;;;;;45.13;42.80;;;;;;;;;;5074590;28;20077;-73
2023/07/25 12:54:03;;;;;;;34.97;33.17;;;;;;;;;;5079482;28;20036;-73
2023/07/25 12:56:28;;;;;;;48.47;45.97;;;;;;;;;;5074549;28;20036;-75
2023/07/25 12:58:54;;;;;;;45.78;43.45;;;;;;;;;;5076554;28;20035;-72
2023/07/25 13:01:20;;;;;;;14.88;13.98;;;;;;;;;;5073074;28;21196;-74
2023/07/25 13:03:45;;;;;;;11.82;11.13;;;;;;;;;;5072153;28;20098;-74
2023/07/25 13:06:11;;;;;;;11.65;10.95;;;;;;;;;;5075966;28;20412;-74
2023/07/25 13:08:36;;;;;;;11.30;10.60;;;;;;;;;;5075362;28;20044;-73
2023/07/25 13:11:04;;;;;;;13.20;12.40;;;;;;;;;;5074067;28;20024;-72
2023/07/25 13:13:29;;;;;;;13.20;12.40;;;;;;;;;;5076155;28;20354;-72
2023/07/25 13:15:55;;;;;;;13.57;12.77;;;;;;;;;;5072097;28;20067;-73
2023/07/25 13:18:20;;;;;;;12.88;12.15;;;;;;;;;;5071186;28;20089;-73
2023/07/25 13:20:46;;;;;;;29.85;28.30;;;;;;;;;;5076710;28;20655;-71
2023/07/25 13:23:13;;;;;;;12.40;11.55;;;;;;;;;;5075102;28;20136;-73
2023/07/25 13:25:42;;;;;;;38.63;36.63;;;;;;;;;;5076356;28;20028;-72
2023/07/25 13:28:07;;;;;;;27.38;25.90;;;;;;;;;;5077452;28;20429;-70
2023/07/25 13:30:33;;;;;;;15.93;15.02;;;;;;;;;;5077244;28;20453;-65
2023/07/25 13:32:58;;;;;;;23.52;22.30;;;;;;;;;;5075927;28;20032;-68
2023/07/25 13:35:23;;;;;;;19.90;18.83;;;;;;;;;;5077430;28;20033;-66
2023/07/25 13:37:49;;;;;;;15.90;15.00;;;;;;;;;;5077277;28;20872;-69
2023/07/25 13:40:14;;;;;;;12.80;12.10;;;;;;;;;;5073441;28;20040;-66
2023/07/25 13:42:40;;;;;;;13.75;12.95;;;;;;;;;;5077198;28;20024;-66
2023/07/25 13:45:06;;;;;;;11.38;10.68;;;;;;;;;;5074176;28;20062;-66
2023/07/25 13:47:31;;;;;;;12.23;11.48;;;;;;;;;;5078514;28;20089;-67
2023/07/25 13:49:58;;;;;;;13.38;12.57;;;;;;;;;;5075707;28;20024;-66
2023/07/25 13:52:25;;;;;;;29.88;28.23;;;;;;;;;;5077661;28;20052;-66
2023/07/25 13:54:50;;;;;;;13.38;12.57;;;;;;;;;;5076132;28;20074;-66
2023/07/25 13:57:15;;;;;;;16.92;15.57;;;;;;;;;;5076985;28;20068;-65
2023/07/25 13:59:41;;;;;;;12.75;11.90;;;;;;;;;;5076936;28;20066;-66
2023/07/25 14:02:06;;;;;;;22.13;20.92;;;;;;;;;;5074201;28;20024;-72
2023/07/25 14:04:32;;;;;;;12.30;11.60;;;;;;;;;;5075171;28;20043;-65
2023/07/25 14:06:57;;;;;;;20.15;19.05;;;;;;;;;;5080027;28;20028;-65
2023/07/25 14:09:22;;;;;;;12.68;11.93;;;;;;;;;;5074785;28;20028;-65